Time;durP1;ratioP1;P1;durP2;ratioP2;P2;SDS_P1;SDS_P2;PMS_P1;PMS_P2;Temp;Humidity;BMP_temperature;BMP_pressure;BME280_temperature;BME280_humidity;BME280_pressure;Samples;Min_cycle;Max_cycle;Signal;HPM_P1;HPM_P2
2022/11/25 00:01:11;;;;;;;95.43;31.95;;;;;;;3.95;100.00;101094.88;5030273;28;20030;-73
2022/11/25 00:03:37;;;;;;;131.20;38.55;;;;;;;3.98;100.00;101094.66;5012998;28;20029;-72
2022/11/25 00:06:24;;;;;;;107.15;36.55;;;;;;;3.87;100.00;101101.75;5030077;28;20045;-73
2022/11/25 00:08:53;;;;;;;126.10;38.22;;;;;;;3.86;100.00;101095.53;5012925;28;20030;-73
2022/11/25 00:11:19;;;;;;;111.25;34.65;;;;;;;3.97;100.00;101098.28;5013079;28;20033;-72
2022/11/25 00:13:46;;;;;;;100.75;34.88;;;;;;;3.93;100.00;101099.47;5030559;28;20029;-72
2022/11/25 00:16:15;;;;;;;71.30;28.17;;;;;;;3.82;100.00;101091.34;5030736;28;20050;-73
2022/11/25 00:18:52;;;;;;;89.38;31.80;;;;;;;3.76;100.00;101083.75;5012782;28;20091;-72
2022/11/25 00:21:22;;;;;;;103.63;36.22;;;;;;;3.70;100.00;101078.84;5009701;28;20033;-72
2022/11/25 00:24:00;;;;;;;62.85;28.35;;;;;;;3.48;100.00;101080.34;5026663;28;20030;-72
2022/11/25 00:26:28;;;;;;;75.75;29.00;;;;;;;3.48;100.00;101080.34;5013336;28;20025;-72
2022/11/25 00:28:56;;;;;;;77.55;32.03;;;;;;;3.41;100.00;101078.22;5030297;28;20405;-72
2022/11/25 00:31:31;;;;;;;92.18;35.10;;;;;;;3.36;100.00;101083.88;5012816;28;20041;-73
2022/11/25 00:33:57;;;;;;;82.45;31.77;;;;;;;3.42;100.00;101080.78;5030336;28;20033;-73
2022/11/25 00:36:28;;;;;;;108.38;36.15;;;;;;;3.45;100.00;101080.56;5012541;28;20033;-72
2022/11/25 00:38:59;;;;;;;138.73;44.03;;;;;;;3.49;100.00;101086.56;5013041;28;20112;-73
2022/11/25 00:47:20;;;;;;;159.68;43.25;;;;;;;3.63;100.00;101088.25;5029918;28;20026;-72
2022/11/25 00:49:50;;;;;;;136.25;44.30;;;;;;;3.64;100.00;101089.97;5000187;28;20037;-72
2022/11/25 00:52:24;;;;;;;182.15;48.25;;;;;;;3.63;100.00;101093.63;5013160;28;20108;-72
2022/11/25 00:54:50;;;;;;;148.05;46.83;;;;;;;3.68;100.00;101086.97;5030658;28;20037;-72
2022/11/25 00:57:21;;;;;;;107.97;37.83;;;;;;;3.62;100.00;101090.09;5013604;28;20021;-73
2022/11/25 00:59:46;;;;;;;73.25;28.38;;;;;;;3.58;100.00;101085.06;5014483;28;20022;-72
2022/11/25 01:02:13;;;;;;;78.90;31.17;;;;;;;3.64;100.00;101084.63;5015998;28;20029;-72
2022/11/25 01:04:39;;;;;;;85.50;31.17;;;;;;;3.54;100.00;101082.59;5033312;28;20038;-72
2022/11/25 01:07:05;;;;;;;62.50;28.45;;;;;;;3.51;100.00;101069.41;5015694;28;20026;-73
2022/11/25 01:09:30;;;;;;;73.57;29.10;;;;;;;3.58;100.00;101074.34;5017132;28;20025;-72
2022/11/25 01:11:56;;;;;;;63.17;27.75;;;;;;;3.47;100.00;101067.94;5016992;28;20112;-73
2022/11/25 01:14:23;;;;;;;97.65;36.05;;;;;;;3.36;100.00;101065.16;5015597;28;20017;-73
2022/11/25 01:16:48;;;;;;;101.10;37.63;;;;;;;3.26;100.00;101064.09;5015769;28;20021;-72
2022/11/25 01:19:15;;;;;;;105.25;35.58;;;;;;;3.32;100.00;101063.66;5016007;28;20032;-72
2022/11/25 01:21:40;;;;;;;172.63;50.10;;;;;;;3.52;100.00;101071.16;5008486;28;20014;-72
2022/11/25 01:24:06;;;;;;;157.93;45.22;;;;;;;3.76;100.00;101068.53;5031240;28;20024;-73
2022/11/25 01:26:33;;;;;;;134.25;41.13;;;;;;;3.94;100.00;101082.44;5015317;28;20045;-73
2022/11/25 01:29:04;;;;;;;131.80;42.80;;;;;;;4.02;100.00;101066.66;5015729;28;20057;-72
2022/11/25 01:31:33;;;;;;;107.65;38.47;;;;;;;4.02;100.00;101080.06;5015975;28;20072;-73
2022/11/25 01:34:07;;;;;;;152.13;42.90;;;;;;;3.90;100.00;101075.56;5033396;28;20033;-72
2022/11/25 01:36:32;;;;;;;97.95;36.05;;;;;;;3.74;100.00;101077.66;5016284;28;20339;-72
2022/11/25 01:38:59;;;;;;;119.03;35.55;;;;;;;3.75;100.00;101071.34;5016114;28;20128;-72
2022/11/25 01:41:27;;;;;;;136.38;41.08;;;;;;;3.69;100.00;101066.41;5016239;28;20029;-73
2022/11/25 01:44:20;;;;;;;87.53;32.67;;;;;;;3.66;100.00;101066.66;5014748;28;20033;-73
2022/11/25 01:47:11;;;;;;;100.10;33.60;;;;;;;3.47;100.00;101056.38;5015530;28;20032;-72
2022/11/25 01:49:47;;;;;;;100.88;36.17;;;;;;;3.30;100.00;101059.38;5015478;28;20028;-72
2022/11/25 01:52:23;;;;;;;85.93;33.60;;;;;;;3.36;100.00;101059.81;5007050;28;20390;-72
2022/11/25 01:54:56;;;;;;;146.15;43.80;;;;;;;3.20;100.00;101048.47;5015054;28;20029;-72
2022/11/25 01:57:29;;;;;;;157.00;43.08;;;;;;;3.37;100.00;101049.94;5015668;28;20116;-73
2022/11/25 01:59:58;;;;;;;105.25;36.35;;;;;;;3.47;100.00;101034.97;5016050;28;20040;-73
2022/11/25 02:02:24;;;;;;;116.95;40.72;;;;;;;3.39;100.00;101048.91;5015555;28;20029;-73
2022/11/25 02:04:49;;;;;;;106.13;35.53;;;;;;;3.47;100.00;101051.88;5032798;28;20018;-72
2022/11/25 02:07:25;;;;;;;218.15;52.10;;;;;;;3.58;100.00;101052.91;5033150;28;20021;-72
2022/11/25 02:09:51;;;;;;;115.43;39.40;;;;;;;3.61;100.00;101050.03;5015270;28;20021;-73
2022/11/25 02:12:18;;;;;;;84.20;32.47;;;;;;;3.72;100.00;101042.97;5032956;28;20032;-72
2022/11/25 02:14:45;;;;;;;91.63;33.53;;;;;;;3.74;100.00;101054.41;5014933;28;20071;-73
2022/11/25 02:17:11;;;;;;;169.60;47.33;;;;;;;3.75;100.00;101056.13;5032905;28;20032;-73
2022/11/25 02:19:55;;;;;;;182.90;45.83;;;;;;;3.69;100.00;101059.22;5032884;28;20018;-72
2022/11/25 02:22:32;;;;;;;144.75;43.63;;;;;;;3.87;100.00;101069.59;5032564;28;20052;-73
2022/11/25 02:25:27;;;;;;;157.82;42.67;;;;;;;3.87;100.00;101070.47;5014680;28;20046;-72
2022/11/25 02:28:01;;;;;;;115.00;34.33;;;;;;;3.77;100.00;101064.03;5011526;28;20065;-73
2022/11/25 02:30:26;;;;;;;107.70;37.85;;;;;;;3.64;100.00;101064.06;5015105;28;20056;-72
2022/11/25 02:32:52;;;;;;;83.00;32.03;;;;;;;3.63;100.00;101056.13;5014947;28;20057;-73
2022/11/25 02:35:26;;;;;;;101.25;33.88;;;;;;;3.56;100.00;101057.53;5031924;28;20075;-72
2022/11/25 02:37:55;;;;;;;98.97;31.90;;;;;;;3.48;100.00;101048.22;5031589;28;20059;-73
2022/11/25 02:40:21;;;;;;;88.55;31.85;;;;;;;3.59;100.00;101060.03;5051816;28;20025;-73
2022/11/25 02:42:49;;;;;;;90.65;33.72;;;;;;;3.59;100.00;101054.66;5035006;28;20393;-72
2022/11/25 02:45:18;;;;;;;134.88;37.95;;;;;;;3.67;100.00;101065.69;5051819;28;20655;-73
2022/11/25 02:47:44;;;;;;;94.82;34.53;;;;;;;3.85;100.00;101067.03;5052335;28;20016;-74
2022/11/25 02:50:12;;;;;;;118.82;39.85;;;;;;;3.95;100.00;101070.75;5034761;28;20040;-72
2022/11/25 02:52:37;;;;;;;145.25;39.80;;;;;;;4.09;100.00;101064.38;5017894;28;20036;-73
2022/11/25 02:55:03;;;;;;;120.07;40.00;;;;;;;3.83;100.00;101063.59;5032129;28;20041;-73
2022/11/25 02:57:28;;;;;;;120.28;40.72;;;;;;;3.54;100.00;101063.88;5013935;28;20021;-73
2022/11/25 02:59:54;;;;;;;119.28;42.05;;;;;;;3.69;100.00;101061.06;5014528;28;20033;-72
2022/11/25 03:02:19;;;;;;;126.13;41.00;;;;;;;3.65;100.00;101059.56;5014246;28;20029;-73
2022/11/25 03:04:44;;;;;;;150.63;46.55;;;;;;;3.50;100.00;101062.34;5014173;28;20418;-74
2022/11/25 03:07:10;;;;;;;133.30;44.95;;;;;;;3.54;100.00;101058.50;5014035;28;20116;-73
2022/11/25 03:09:35;;;;;;;138.25;43.25;;;;;;;3.60;100.00;101069.75;5014870;28;20079;-73
2022/11/25 03:12:19;;;;;;;163.93;49.38;;;;;;;3.76;100.00;101068.53;5014376;28;20029;-72
2022/11/25 03:14:44;;;;;;;158.65;45.80;;;;;;;3.88;100.00;101065.97;5013490;28;20117;-73
2022/11/25 03:17:10;;;;;;;179.95;49.13;;;;;;;3.78;100.00;101063.06;5031084;28;20056;-74
2022/11/25 03:19:35;;;;;;;155.77;47.00;;;;;;;3.76;100.00;101067.69;5014129;28;20029;-73
2022/11/25 03:22:02;;;;;;;145.77;49.15;;;;;;;3.88;100.00;101072.16;5003256;28;20067;-73
2022/11/25 03:24:27;;;;;;;148.73;48.60;;;;;;;3.90;100.00;101069.38;5032854;28;20043;-74
2022/11/25 03:26:52;;;;;;;163.18;51.72;;;;;;;3.85;100.00;101071.50;5013221;28;20029;-73
2022/11/25 03:29:18;;;;;;;177.70;51.78;;;;;;;3.80;100.00;101063.84;5013949;28;20025;-73
2022/11/25 03:31:43;;;;;;;162.05;49.08;;;;;;;3.84;100.00;101062.63;5031007;28;20041;-74
2022/11/25 03:34:08;;;;;;;166.98;49.47;;;;;;;3.84;100.00;101054.59;5013608;28;20037;-73
2022/11/25 03:36:34;;;;;;;159.75;49.47;;;;;;;3.86;100.00;101052.69;5013368;28;20048;-73
2022/11/25 03:39:00;;;;;;;151.43;48.63;;;;;;;3.91;100.00;101061.25;5031471;28;20029;-73
2022/11/25 03:41:25;;;;;;;161.70;48.65;;;;;;;3.92;100.00;101062.94;5013492;28;20033;-73
2022/11/25 03:43:50;;;;;;;145.80;45.38;;;;;;;3.91;100.00;101061.25;5031254;28;20028;-73
2022/11/25 03:46:16;;;;;;;133.45;45.55;;;;;;;3.86;100.00;101063.41;5013778;28;20032;-73
2022/11/25 03:48:41;;;;;;;170.43;49.83;;;;;;;3.82;100.00;101064.56;5014489;28;20064;-72
2022/11/25 03:51:06;;;;;;;138.35;42.08;;;;;;;3.78;100.00;101063.06;5013404;28;20056;-74
2022/11/25 03:53:32;;;;;;;137.07;42.28;;;;;;;3.81;100.00;101065.53;5007586;28;20034;-73
2022/11/25 03:55:57;;;;;;;152.07;44.22;;;;;;;3.73;100.00;101058.06;4993772;28;20041;-74
2022/11/25 03:58:22;;;;;;;122.45;42.50;;;;;;;3.89;100.00;101068.50;4993938;28;20034;-73
2022/11/25 04:00:48;;;;;;;132.90;42.78;;;;;;;4.02;100.00;101063.97;5014772;23;20124;-75
2022/11/25 04:03:13;;;;;;;136.85;41.50;;;;;;;4.05;100.00;101074.50;5021466;28;20036;-75
2022/11/25 04:05:39;;;;;;;95.03;35.78;;;;;;;4.03;100.00;101075.56;5034157;28;20041;-76
2022/11/25 04:08:05;;;;;;;141.00;43.08;;;;;;;3.97;100.00;101076.84;5034112;28;20485;-74
2022/11/25 04:10:30;;;;;;;158.25;45.90;;;;;;;4.02;100.00;101085.41;5034069;28;20116;-74
2022/11/25 04:12:56;;;;;;;119.72;39.42;;;;;;;4.02;100.00;101080.06;5034061;28;20159;-75
2022/11/25 04:15:21;;;;;;;122.28;39.67;;;;;;;4.15;100.00;101073.81;5033017;28;20025;-76
2022/11/25 04:17:47;;;;;;;134.15;41.92;;;;;;;4.13;100.00;101070.41;5033721;28;20021;-74
2022/11/25 04:20:13;;;;;;;117.95;40.05;;;;;;;3.96;100.00;101075.13;5050079;28;20088;-75
2022/11/25 04:22:39;;;;;;;122.10;39.55;;;;;;;3.80;100.00;101080.75;5062835;28;20139;-74
2022/11/25 04:25:05;;;;;;;113.22;39.25;;;;;;;3.92;100.00;101079.03;5052281;28;20120;-74
2022/11/25 04:27:30;;;;;;;117.97;39.13;;;;;;;3.92;100.00;101071.00;5053165;28;20059;-75
2022/11/25 04:29:56;;;;;;;120.03;37.00;;;;;;;3.80;100.00;101069.19;5053429;28;20040;-74
2022/11/25 04:32:22;;;;;;;89.63;32.35;;;;;;;3.82;100.00;101061.88;5052767;28;20024;-74
2022/11/25 04:34:47;;;;;;;97.32;34.22;;;;;;;3.79;100.00;101056.78;5055297;28;20016;-74
2022/11/25 04:37:12;;;;;;;93.07;32.45;;;;;;;3.74;100.00;101049.06;5056839;28;20473;-74
2022/11/25 04:39:38;;;;;;;96.60;30.70;;;;;;;3.87;100.00;101043.69;5057134;28;20028;-74
2022/11/25 04:44:47;;;;;;;85.15;26.52;;;;;;;3.94;100.00;101058.34;5074141;28;20029;-74
2022/11/25 04:47:12;;;;;;;81.32;28.38;;;;;;;3.86;100.00;101063.41;5056908;28;20059;-73
2022/11/25 04:49:38;;;;;;;79.03;27.33;;;;;;;3.86;100.00;101068.75;5074281;28;20036;-75
2022/11/25 04:52:03;;;;;;;75.70;27.13;;;;;;;3.79;100.00;101073.69;5055681;28;20077;-74
2022/11/25 04:54:29;;;;;;;66.47;24.20;;;;;;;3.82;100.00;101061.88;5042599;28;20082;-75
2022/11/25 04:56:54;;;;;;;68.18;23.50;;;;;;;3.91;100.00;101066.59;5036938;28;20029;-76
2022/11/25 04:59:38;;;;;;;65.78;25.17;;;;;;;3.95;100.00;101068.06;5037104;28;20039;-74
2022/11/25 05:02:04;;;;;;;77.50;25.90;;;;;;;3.96;100.00;101068.94;5053367;28;20032;-73
2022/11/25 05:04:30;;;;;;;62.72;24.55;;;;;;;4.03;100.00;101071.03;5058208;28;20081;-74
2022/11/25 05:06:55;;;;;;;77.05;25.08;;;;;;;3.88;100.00;101065.97;5057897;28;20135;-73
2022/11/25 05:09:21;;;;;;;69.60;25.05;;;;;;;3.87;100.00;101062.41;5058841;28;20055;-74
2022/11/25 05:11:46;;;;;;;95.85;27.60;;;;;;;3.90;100.00;101061.34;5076148;28;20039;-73
2022/11/25 05:14:12;;;;;;;81.30;26.02;;;;;;;4.04;100.00;101062.06;5058328;28;20039;-74
2022/11/25 05:16:37;;;;;;;90.55;27.60;;;;;;;4.01;100.00;101064.94;5058325;28;20032;-73
2022/11/25 05:19:03;;;;;;;87.07;26.75;;;;;;;4.04;100.00;101063.84;5058877;28;20047;-74
2022/11/25 05:21:28;;;;;;;72.65;27.33;;;;;;;3.97;100.00;101076.00;5054007;28;20059;-74
2022/11/25 05:23:54;;;;;;;70.60;25.60;;;;;;;4.02;100.00;101069.34;5036686;28;20033;-74
2022/11/25 05:26:19;;;;;;;74.60;24.08;;;;;;;4.03;100.00;101073.72;5037622;28;20032;-75
2022/11/25 05:28:45;;;;;;;80.63;25.15;;;;;;;3.89;100.00;101071.19;5038285;28;20051;-74
2022/11/25 05:31:11;;;;;;;63.40;21.08;;;;;;;4.09;100.00;101070.59;5038090;28;20393;-75
2022/11/25 05:33:36;;;;;;;65.30;22.15;;;;;;;3.95;100.00;101062.72;5055204;28;20041;-75
2022/11/25 05:36:03;;;;;;;73.88;26.02;;;;;;;4.01;100.00;101062.28;5052408;28;20035;-75
2022/11/25 05:38:29;;;;;;;71.07;25.77;;;;;;;3.92;100.00;101076.34;5057560;28;20027;-75
2022/11/25 05:41:06;;;;;;;81.05;25.75;;;;;;;3.97;100.00;101071.50;5057466;28;20036;-75
2022/11/25 05:43:32;;;;;;;80.07;26.05;;;;;;;3.93;100.00;101072.69;5057012;28;20044;-75
2022/11/25 05:45:58;;;;;;;74.10;25.70;;;;;;;3.96;100.00;101067.09;5056644;28;20062;-75
2022/11/25 05:48:23;;;;;;;90.13;30.58;;;;;;;3.90;100.00;101064.88;5058176;28;20059;-75
2022/11/25 05:50:49;;;;;;;82.20;29.13;;;;;;;3.93;100.00;101061.97;5056999;28;20077;-74
2022/11/25 05:53:16;;;;;;;78.57;29.65;;;;;;;3.96;100.00;101064.44;5056517;28;20480;-74
2022/11/25 05:55:52;;;;;;;87.32;29.58;;;;;;;4.00;100.00;101070.44;5056833;28;20025;-74
2022/11/25 05:58:17;;;;;;;81.18;26.98;;;;;;;4.19;100.00;101064.59;5056659;28;20033;-74
2022/11/25 06:00:42;;;;;;;81.00;28.10;;;;;;;4.17;100.00;101056.63;5057001;28;20031;-74
2022/11/25 06:03:08;;;;;;;79.72;28.77;;;;;;;4.26;100.00;101061.34;5056479;28;20025;-74
2022/11/25 06:05:34;;;;;;;88.35;26.00;;;;;;;4.25;100.00;101065.00;5074058;28;20028;-74
2022/11/25 06:07:59;;;;;;;94.75;30.73;;;;;;;4.38;100.00;101070.31;5056591;28;20020;-74
2022/11/25 06:10:24;;;;;;;73.25;29.30;;;;;;;4.26;100.00;101063.16;5056449;28;20027;-74
2022/11/25 06:12:52;;;;;;;82.57;28.35;;;;;;;4.24;100.00;101068.66;5056708;28;20109;-75
2022/11/25 06:15:17;;;;;;;80.53;27.05;;;;;;;4.41;100.00;101053.13;5056461;28;20170;-75
2022/11/25 06:17:43;;;;;;;79.47;27.92;;;;;;;4.29;100.00;101055.75;5074655;28;20060;-75
2022/11/25 06:20:08;;;;;;;57.95;22.88;;;;;;;4.43;100.00;101057.38;5056840;28;20029;-75
2022/11/25 06:22:34;;;;;;;87.03;28.33;;;;;;;4.37;100.00;101052.50;5057295;28;20031;-76
2022/11/25 06:24:59;;;;;;;94.47;29.48;;;;;;;4.31;100.00;101047.59;5056168;28;20077;-75
2022/11/25 06:27:24;;;;;;;86.95;29.27;;;;;;;4.29;100.00;101052.22;5074296;28;20027;-75
2022/11/25 06:29:50;;;;;;;75.97;27.15;;;;;;;4.28;100.00;101058.53;5056915;28;20024;-74
2022/11/25 06:32:15;;;;;;;75.35;25.88;;;;;;;4.29;100.00;101060.25;5057166;28;20064;-76
2022/11/25 06:34:41;;;;;;;66.32;26.50;;;;;;;4.35;100.00;101065.16;5052791;28;20093;-74
2022/11/25 06:37:07;;;;;;;74.28;26.52;;;;;;;4.37;100.00;101057.88;5036396;28;20405;-74
2022/11/25 06:39:33;;;;;;;91.38;27.98;;;;;;;4.50;100.00;101069.41;5036131;28;20070;-74
2022/11/25 06:41:59;;;;;;;85.28;27.02;;;;;;;4.26;100.00;101068.53;5037108;28;20029;-74
2022/11/25 06:44:24;;;;;;;85.20;27.38;;;;;;;4.28;100.00;101069.25;5036113;28;20173;-74
2022/11/25 06:46:49;;;;;;;90.97;27.27;;;;;;;4.26;100.00;101073.88;5035875;28;20036;-74
2022/11/25 06:49:15;;;;;;;83.75;28.33;;;;;;;4.21;100.00;101063.50;5036263;28;20104;-74
2022/11/25 06:51:40;;;;;;;81.70;25.73;;;;;;;4.29;100.00;101071.81;5056006;28;20020;-74
2022/11/25 06:54:07;;;;;;;88.47;29.35;;;;;;;4.22;100.00;101064.34;5045588;28;20362;-74
2022/11/25 06:56:32;;;;;;;87.22;29.48;;;;;;;4.21;100.00;101073.38;5035245;28;20021;-74
2022/11/25 06:58:58;;;;;;;76.60;27.60;;;;;;;4.22;100.00;101075.06;5036817;28;20031;-74
2022/11/25 07:01:26;;;;;;;78.30;26.52;;;;;;;4.37;100.00;101079.31;5056454;28;20047;-74
2022/11/25 07:03:54;;;;;;;64.57;24.73;;;;;;;4.22;100.00;101080.44;5055955;28;20021;-74
2022/11/25 07:06:20;;;;;;;77.32;26.10;;;;;;;4.36;100.00;101078.44;5056254;28;20024;-74
2022/11/25 07:08:47;;;;;;;82.25;26.45;;;;;;;4.29;100.00;101079.84;5056315;28;20031;-74
2022/11/25 07:11:18;;;;;;;81.50;23.95;;;;;;;4.27;100.00;101083.63;5055362;28;20081;-75
2022/11/25 07:13:44;;;;;;;70.53;21.40;;;;;;;4.34;100.00;101079.53;5052271;28;20029;-75
2022/11/25 07:16:11;;;;;;;66.75;22.13;;;;;;;4.38;100.00;101086.38;5064698;28;20191;-72
2022/11/25 07:18:38;;;;;;;60.67;20.00;;;;;;;4.53;100.00;101079.88;5044090;28;20021;-71
2022/11/25 07:21:14;;;;;;;89.28;23.35;;;;;;;4.59;100.00;101078.56;5044439;28;20021;-72
2022/11/25 07:23:41;;;;;;;64.95;22.15;;;;;;;4.41;100.00;101075.44;5041428;28;20017;-72
2022/11/25 07:26:10;;;;;;;69.93;22.05;;;;;;;4.55;100.00;101087.81;5043797;28;20020;-72
2022/11/25 07:28:36;;;;;;;61.35;19.67;;;;;;;4.44;100.00;101107.38;5051300;28;20024;-73
2022/11/25 07:31:20;;;;;;;55.58;16.60;;;;;;;4.51;100.00;101108.63;5053281;28;20036;-72
2022/11/25 07:33:47;;;;;;;68.75;19.35;;;;;;;4.40;100.00;101111.25;5050505;28;20055;-73
2022/11/25 07:36:13;;;;;;;49.30;17.13;;;;;;;4.46;100.00;101105.44;5048781;28;20508;-73
2022/11/25 07:38:40;;;;;;;60.58;18.60;;;;;;;4.62;100.00;101106.00;5053115;28;20016;-73
2022/11/25 07:41:08;;;;;;;63.90;16.85;;;;;;;4.71;100.00;101103.63;5065005;28;20040;-72
2022/11/25 07:43:33;;;;;;;48.72;15.27;;;;;;;4.69;100.00;101110.91;5044469;28;20099;-73
2022/11/25 07:46:15;;;;;;;45.28;14.68;;;;;;;4.82;100.00;101111.69;5052533;28;20052;-74
2022/11/25 07:48:41;;;;;;;41.60;13.93;;;;;;;4.81;100.00;101110.84;5053184;28;20032;-74
2022/11/25 07:51:16;;;;;;;41.35;13.32;;;;;;;4.96;100.00;101119.59;5039642;28;20071;-73
2022/11/25 07:53:42;;;;;;;39.88;15.20;;;;;;;5.11;100.00;101122.94;5039503;28;20029;-76
2022/11/25 07:56:08;;;;;;;46.10;13.23;;;;;;;4.91;100.00;101124.44;5037648;28;20032;-74
2022/11/25 07:58:33;;;;;;;61.83;14.18;;;;;;;4.89;100.00;101123.72;5038831;28;20020;-75
2022/11/25 08:01:03;;;;;;;37.60;12.15;;;;;;;5.07;100.00;101122.28;5040844;28;20028;-76
2022/11/25 08:03:32;;;;;;;49.03;12.52;;;;;;;5.15;100.00;101111.84;5035184;28;20016;-72
2022/11/25 08:06:06;;;;;;;36.08;12.43;;;;;;;5.21;100.00;101112.31;5041230;28;20037;-72
2022/11/25 08:08:33;;;;;;;40.78;12.88;;;;;;;5.25;100.00;101113.81;5051983;28;20017;-72
2022/11/25 08:10:58;;;;;;;38.22;13.73;;;;;;;5.21;100.00;101123.06;5049162;28;20032;-75
2022/11/25 08:13:24;;;;;;;46.05;14.77;;;;;;;5.25;100.00;101119.19;5046465;28;20016;-72
2022/11/25 08:15:50;;;;;;;49.15;12.75;;;;;;;5.14;100.00;101128.91;5042848;28;20017;-74
2022/11/25 08:18:16;;;;;;;41.33;12.60;;;;;;;5.28;100.00;101137.72;5049858;28;20051;-73
2022/11/25 08:20:42;;;;;;;46.60;12.68;;;;;;;5.25;100.00;101129.91;5036230;28;20048;-72
2022/11/25 08:23:07;;;;;;;53.45;13.52;;;;;;;5.22;100.00;101127.47;5042134;28;20040;-72
2022/11/25 08:25:37;;;;;;;57.45;14.48;;;;;;;5.23;100.00;101126.50;5037635;28;20103;-72
2022/11/25 08:28:03;;;;;;;57.50;15.00;;;;;;;5.40;100.00;101126.03;5043807;28;20086;-73
2022/11/25 08:30:28;;;;;;;50.55;13.73;;;;;;;5.37;100.00;101128.97;5045045;28;20020;-72
2022/11/25 08:32:53;;;;;;;41.92;13.75;;;;;;;5.50;100.00;101124.38;5050667;28;20027;-72
2022/11/25 08:35:19;;;;;;;46.22;13.38;;;;;;;5.40;100.00;101128.72;5042390;28;20063;-74
2022/11/25 08:37:45;;;;;;;44.42;14.00;;;;;;;5.50;100.00;101124.38;5039145;28;20016;-73
2022/11/25 08:40:11;;;;;;;43.58;14.02;;;;;;;5.48;100.00;101126.31;5040339;28;20505;-73
2022/11/25 08:42:37;;;;;;;39.92;12.77;;;;;;;5.42;100.00;101122.28;5052489;28;20489;-74
2022/11/25 08:45:03;;;;;;;42.35;12.77;;;;;;;5.55;100.00;101121.34;5039788;28;20009;-72
2022/11/25 08:47:28;;;;;;;41.40;11.73;;;;;;;5.68;100.00;101122.94;5038741;28;20024;-72
2022/11/25 08:49:54;;;;;;;49.65;13.07;;;;;;;5.52;100.00;101122.41;5058657;28;20051;-72
2022/11/25 08:52:20;;;;;;;37.53;12.70;;;;;;;5.51;100.00;101120.69;5041288;28;20101;-73
2022/11/25 08:54:46;;;;;;;42.10;12.45;;;;;;;5.65;100.00;101123.16;5040012;28;20005;-73
2022/11/25 08:57:12;;;;;;;37.97;11.65;;;;;;;5.60;100.00;101141.47;5038617;28;20046;-72
2022/11/25 08:59:37;;;;;;;34.38;11.30;;;;;;;5.52;100.00;101125.09;5061448;28;20021;-73
2022/11/25 09:02:04;;;;;;;34.90;10.98;;;;;;;5.48;100.00;101118.28;5036844;28;20027;-72
2022/11/25 09:04:29;;;;;;;34.00;11.88;;;;;;;5.50;100.00;101124.38;5050839;28;20017;-73
2022/11/25 09:06:55;;;;;;;39.58;11.85;;;;;;;5.47;100.00;101124.59;5039670;28;20021;-73
2022/11/25 09:09:20;;;;;;;46.35;12.02;;;;;;;5.59;100.00;101129.00;5049768;28;20031;-73
2022/11/25 09:11:45;;;;;;;33.00;11.68;;;;;;;5.47;100.00;101129.09;5051896;28;20094;-73
2022/11/25 09:14:11;;;;;;;41.80;11.32;;;;;;;5.49;100.00;101140.59;5045181;28;20029;-73
2022/11/25 09:16:36;;;;;;;39.83;11.35;;;;;;;5.64;100.00;101126.81;5050495;28;20029;-73
2022/11/25 09:19:02;;;;;;;44.63;11.63;;;;;;;5.59;100.00;101144.28;5049502;28;20025;-73
2022/11/25 09:21:27;;;;;;;47.42;11.77;;;;;;;5.63;100.00;101149.28;5048924;28;20027;-73
2022/11/25 09:23:53;;;;;;;42.05;12.20;;;;;;;5.75;100.00;101152.00;5037912;28;20017;-73
2022/11/25 09:26:31;;;;;;;28.13;10.15;;;;;;;5.80;100.00;101152.47;5042616;28;20042;-72
2022/11/25 09:28:56;;;;;;;33.47;10.88;;;;;;;5.73;100.00;101158.31;5039986;28;20021;-72
2022/11/25 09:31:23;;;;;;;43.15;10.10;;;;;;;5.86;100.00;101165.44;5041736;28;20017;-73
2022/11/25 09:33:48;;;;;;;35.25;10.68;;;;;;;5.91;100.00;101160.59;5041722;28;20025;-72
2022/11/25 09:36:16;;;;;;;33.38;9.88;;;;;;;5.77;100.00;101163.47;5048499;28;20031;-74
2022/11/25 09:38:44;;;;;;;46.85;12.20;;;;;;;5.86;100.00;101163.59;5048547;28;20021;-72
2022/11/25 09:48:17;;;;;;;43.22;11.25;;;;;;;5.58;100.00;101164.91;5056430;28;20025;-72
2022/11/25 09:50:52;;;;;;;39.58;10.77;;;;;;;5.59;100.00;101166.59;5043507;28;20025;-73
2022/11/25 09:53:38;;;;;;;42.95;13.77;;;;;;;5.69;100.00;101167.63;5051644;28;20027;-72
2022/11/25 09:56:29;;;;;;;41.22;12.15;;;;;;;5.67;100.00;101164.22;5046675;28;20032;-72
2022/11/25 09:59:13;;;;;;;43.17;13.13;;;;;;;5.53;100.00;101172.44;5039161;28;20024;-73
2022/11/25 10:01:49;;;;;;;38.83;13.68;;;;;;;5.49;100.00;101170.16;5037397;28;20052;-74
2022/11/25 10:04:23;;;;;;;58.75;13.45;;;;;;;5.63;100.00;101173.47;5046311;28;20080;-73
2022/11/25 10:06:53;;;;;;;50.80;12.25;;;;;;;5.82;100.00;101166.66;5035163;28;20047;-73
2022/11/25 10:09:24;;;;;;;55.38;14.38;;;;;;;5.84;100.00;101175.44;5036936;28;20544;-73
2022/11/25 10:11:53;;;;;;;45.80;12.90;;;;;;;5.58;100.00;101170.28;5037268;28;20027;-73
2022/11/25 10:14:38;;;;;;;44.40;13.40;;;;;;;5.54;100.00;101174.19;5040072;28;20020;-73
2022/11/25 10:17:41;;;;;;;58.58;14.10;;;;;;;5.48;100.00;101180.03;5034025;28;20051;-74
2022/11/25 10:20:35;;;;;;;52.85;14.73;;;;;;;5.43;100.00;101177.69;5037688;28;20033;-71
2022/11/25 10:23:14;;;;;;;51.78;14.98;;;;;;;5.40;100.00;101187.78;5028993;28;20040;-72
2022/11/25 10:25:51;;;;;;;41.00;14.07;;;;;;;5.35;100.00;101187.31;5043202;28;20016;-71
2022/11/25 10:28:18;;;;;;;52.83;14.65;;;;;;;5.49;100.00;101192.47;5049438;28;20111;-75
2022/11/25 10:31:10;;;;;;;55.13;16.83;;;;;;;5.53;100.00;101183.19;5048665;28;20151;-73
2022/11/25 10:33:44;;;;;;;58.20;15.32;;;;;;;5.58;100.00;101196.28;5033330;28;20036;-72
2022/11/25 10:36:17;;;;;;;56.35;14.15;;;;;;;5.67;100.00;101185.69;5039869;28;20074;-72
2022/11/25 10:39:09;;;;;;;58.80;16.70;;;;;;;5.61;100.00;101180.81;5048165;28;20508;-73
2022/11/25 10:41:45;;;;;;;61.63;16.00;;;;;;;5.38;100.00;101187.91;5039207;28;20088;-74
2022/11/25 10:44:24;;;;;;;57.40;15.65;;;;;;;5.51;100.00;101187.84;5045876;28;20033;-73
2022/11/25 10:47:11;;;;;;;60.25;16.63;;;;;;;5.48;100.00;101190.78;5045470;28;20086;-74
2022/11/25 10:49:58;;;;;;;69.60;17.02;;;;;;;5.70;100.00;101174.69;5042423;28;20044;-73
2022/11/25 10:52:28;;;;;;;45.42;15.48;;;;;;;5.70;100.00;101180.06;5031755;28;20017;-73
2022/11/25 10:55:08;;;;;;;53.53;15.25;;;;;;;5.70;100.00;101185.44;5035907;28;20108;-74
2022/11/25 10:57:34;;;;;;;61.25;14.93;;;;;;;5.65;100.00;101192.16;5041723;28;20115;-73
2022/11/25 11:00:00;;;;;;;47.28;15.35;;;;;;;5.58;100.00;101197.13;5040514;28;20144;-72
2022/11/25 11:02:29;;;;;;;60.83;17.10;;;;;;;5.82;100.00;101198.91;5040781;28;20017;-73
2022/11/25 11:05:01;;;;;;;49.78;14.30;;;;;;;5.87;100.00;101202.09;5040236;28;20017;-72
2022/11/25 11:07:32;;;;;;;64.25;16.95;;;;;;;6.06;100.00;101193.44;5033114;28;20012;-72
2022/11/25 11:10:13;;;;;;;63.75;18.83;;;;;;;5.98;100.00;101194.06;5040456;28;20149;-73
2022/11/25 11:12:49;;;;;;;49.85;15.98;;;;;;;5.85;100.00;101204.03;5033661;28;20103;-72
2022/11/25 11:15:26;;;;;;;55.20;16.45;;;;;;;5.98;100.00;101194.06;5039978;28;20140;-74
2022/11/25 11:17:53;;;;;;;60.30;16.95;;;;;;;5.97;100.00;101192.34;5043596;28;20033;-72
2022/11/25 11:20:26;;;;;;;49.58;14.75;;;;;;;6.02;100.00;101192.84;5039893;28;20556;-75
2022/11/25 11:23:01;;;;;;;45.70;13.77;;;;;;;5.99;100.00;101195.75;5031416;28;20063;-72
2022/11/25 11:25:32;;;;;;;54.53;16.70;;;;;;;5.98;100.00;101202.13;5039359;28;20044;-72
2022/11/25 11:27:59;;;;;;;;;;;;;;;6.02;100.00;101200.91;5045338;28;20028;-73
2022/11/25 11:30:32;;;;;;;52.83;14.57;;;;;;;6.23;100.00;101203.72;5034863;28;19916;-76